Accueil
METAR-TAF:

METAR-TAF

Aéroports :

Aéroport international d'Hewanorra

Vieux-Fort, Sainte-Lucie

latitude: 13-45N, longitude: 060-57W, altitude: 3 m

Observation

Le bulletin a été fait il y a 16 minutes, à 11:00 UTC
Vent 18 kt de est
Température 28°C
Humidité 74%
Pression 1015 hPa
Visibilité 10 km ou plus
Quelques nuages à une hauteur de 2500 ft

METAR: TLPL 031100Z 10018KT 9999 FEW025 28/23 Q1015 NOSIG

Heure: 07:16 (11:16 UTC)

Prévision

Le bulletin a été fait il y a 6 heures et 16 minutes, à 05:00 UTC
Prévision valable du 03 à 06 UTC au 04 à 06 UTC
Vent 17 kt de est
Visibilité 10 km ou plus
Nuages épars à une hauteur de 2400 ft
Temporairement
du 04 à 00 UTC au 04 à 06 UTC
Nuages fragmentés à une hauteur de 4000 ft
averses de pluie

TAF: TLPL 030500Z 0306/0406 10017KT 9999 SCT024 TEMPO 0400/0406 SHRA BKN040

Observations et prévisions météorologiques de plus de 4000 aéroports (messages METAR et TAF).

Les stations disponibles sont représentées par des disques jaunes et rouges sur la carte.

Passer la souris dessus pour voir le nom de la station.

Cliquer dessus pour voir les observations et prévisions météorologiques.

Pour changer de carte: cliquez sur les boutons verts avec une croix noire pour zoomer, sur le bouton vert avec un tiret pour effectuer un zoom arrière, ou sur les flèches vertes pour les cartes adjacentes.


METAR-TAF: